createdAt,value
2018-08-09T00:01:19.368Z,20.95
2018-08-09T00:03:48.207Z,21.03
2018-08-09T00:06:17.086Z,21.06
2018-08-09T00:08:45.967Z,20.97
2018-08-09T00:11:14.893Z,20.84
2018-08-09T00:13:43.752Z,20.93
2018-08-09T00:16:12.656Z,20.98
2018-08-09T00:18:41.568Z,20.93
2018-08-09T00:21:10.455Z,20.83
2018-08-09T00:23:39.337Z,20.84
2018-08-09T00:26:08.244Z,20.80
2018-08-09T00:28:37.121Z,20.74
2018-08-09T00:31:06.299Z,20.62
2018-08-09T00:33:35.389Z,20.72
2018-08-09T00:36:04.504Z,20.75
2018-08-09T00:38:33.376Z,20.73
2018-08-09T00:41:02.256Z,20.75
2018-08-09T00:43:31.193Z,20.78
2018-08-09T00:46:00.090Z,20.73
2018-08-09T00:48:28.999Z,20.63
2018-08-09T00:50:57.913Z,20.49
2018-08-09T00:53:26.869Z,20.56
2018-08-09T00:55:55.804Z,20.48
2018-08-09T00:58:24.716Z,20.47
2018-08-09T01:00:53.619Z,20.45
2018-08-09T01:03:22.515Z,20.49
2018-08-09T01:05:51.412Z,20.48
2018-08-09T01:08:20.281Z,20.23
2018-08-09T01:10:49.464Z,20.02
2018-08-09T01:13:18.417Z,20.07
2018-08-09T01:15:47.314Z,20.14
2018-08-09T01:18:16.249Z,20.16
2018-08-09T01:20:45.140Z,20.09
2018-08-09T01:23:14.034Z,20.19
2018-08-09T01:25:42.921Z,20.27
2018-08-09T01:28:11.863Z,20.21
2018-08-09T01:30:40.710Z,20.35
2018-08-09T01:33:09.611Z,20.48
2018-08-09T01:35:38.505Z,20.35
2018-08-09T01:38:07.413Z,20.41
2018-08-09T01:40:36.288Z,20.20
2018-08-09T01:43:16.418Z,20.11
2018-08-09T01:45:45.329Z,20.25
2018-08-09T01:48:14.233Z,20.36
2018-08-09T01:50:43.139Z,20.35
2018-08-09T01:53:12.028Z,20.07
2018-08-09T01:55:41.948Z,20.21
2018-08-09T01:58:10.816Z,20.27
2018-08-09T02:00:39.727Z,20.18
2018-08-09T02:03:08.609Z,20.29
2018-08-09T02:05:37.611Z,20.31
2018-08-09T02:08:06.509Z,20.30
2018-08-09T02:10:35.448Z,20.09
2018-08-09T02:13:04.341Z,19.94
2018-08-09T02:15:33.292Z,19.96
2018-08-09T02:18:02.138Z,20.16
2018-08-09T02:20:31.033Z,20.11
2018-08-09T02:22:59.909Z,20.00
2018-08-09T02:25:29.116Z,19.97
2018-08-09T02:27:57.988Z,19.92
2018-08-09T02:30:26.873Z,19.70
2018-08-09T02:32:55.772Z,19.86
2018-08-09T02:35:24.747Z,19.96
2018-08-09T02:37:53.713Z,19.99
2018-08-09T02:40:22.737Z,19.92
2018-08-09T02:42:51.666Z,19.90
2018-08-09T02:45:20.586Z,19.94
2018-08-09T02:47:49.488Z,19.96
2018-08-09T02:50:18.373Z,19.90
2018-08-09T02:52:47.344Z,19.90
2018-08-09T02:55:16.231Z,19.81
2018-08-09T02:57:45.142Z,19.89
2018-08-09T03:00:14.024Z,19.88
2018-08-09T03:02:42.889Z,19.98
2018-08-09T03:05:11.824Z,20.11
2018-08-09T03:07:40.714Z,20.19
2018-08-09T03:10:09.657Z,20.19
2018-08-09T03:12:38.603Z,20.27
2018-08-09T03:15:07.507Z,20.28
2018-08-09T03:17:36.659Z,20.39
2018-08-09T03:20:05.602Z,20.47
2018-08-09T03:22:34.557Z,20.54
2018-08-09T03:25:03.511Z,20.54
2018-08-09T03:27:32.608Z,20.63
2018-08-09T03:30:01.785Z,20.67
2018-08-09T03:32:30.661Z,20.75
2018-08-09T03:34:59.540Z,20.79
2018-08-09T03:37:28.771Z,20.80
2018-08-09T03:39:57.774Z,20.81
2018-08-09T03:42:26.660Z,20.67
2018-08-09T03:44:55.568Z,20.57
2018-08-09T03:47:24.474Z,20.60
2018-08-09T03:49:53.406Z,20.68
2018-08-09T03:52:22.316Z,20.75
2018-08-09T03:54:51.262Z,20.71
2018-08-09T03:57:20.130Z,20.84
2018-08-09T03:59:49.097Z,20.85
2018-08-09T04:02:17.932Z,20.77
2018-08-09T04:04:46.840Z,20.80
2018-08-09T04:07:15.745Z,20.81
2018-08-09T04:09:44.681Z,20.76
2018-08-09T04:12:13.651Z,20.86
2018-08-09T04:14:42.586Z,20.88
2018-08-09T04:17:17.078Z,20.75
2018-08-09T04:19:46.171Z,20.83
2018-08-09T04:22:15.030Z,20.85
2018-08-09T04:24:43.948Z,20.83
2018-08-09T04:27:13.012Z,21.00
2018-08-09T04:29:41.950Z,20.99
2018-08-09T04:32:10.865Z,21.01
2018-08-09T04:34:39.768Z,20.95
2018-08-09T04:37:09.166Z,21.08
2018-08-09T04:39:38.211Z,21.07
2018-08-09T04:42:07.194Z,21.13
2018-08-09T04:44:36.237Z,21.14
2018-08-09T04:47:05.256Z,21.13
2018-08-09T04:49:34.158Z,21.17
2018-08-09T04:52:03.044Z,21.18
2018-08-09T04:54:31.911Z,21.18
2018-08-09T04:57:00.941Z,21.25
2018-08-09T04:59:29.852Z,21.29
2018-08-09T05:01:58.746Z,21.28
2018-08-09T05:04:27.638Z,21.27
2018-08-09T05:06:56.818Z,21.26
2018-08-09T05:09:25.898Z,21.28
2018-08-09T05:11:54.808Z,21.13
2018-08-09T05:14:23.715Z,21.23
2018-08-09T05:16:52.669Z,21.29
2018-08-09T05:19:21.624Z,21.23
2018-08-09T05:21:50.533Z,21.32
2018-08-09T05:24:19.498Z,21.40
2018-08-09T05:26:48.354Z,21.33
2018-08-09T05:29:17.255Z,21.39
2018-08-09T05:31:46.143Z,21.43
2018-08-09T05:34:15.129Z,21.43
2018-08-09T05:36:44.040Z,21.39
2018-08-09T05:39:13.023Z,21.38
2018-08-09T05:41:42.273Z,21.43
2018-08-09T05:44:11.293Z,21.44
2018-08-09T05:46:40.166Z,21.56
2018-08-09T05:49:09.928Z,21.59
2018-08-09T05:51:38.814Z,21.45
2018-08-09T05:54:07.705Z,21.47
2018-08-09T05:56:36.652Z,21.55
2018-08-09T05:59:05.601Z,21.47
2018-08-09T06:01:34.596Z,21.52
2018-08-09T06:04:04.638Z,21.51
2018-08-09T06:06:33.863Z,21.67
2018-08-09T06:09:02.838Z,21.78
2018-08-09T06:11:31.798Z,21.81
2018-08-09T06:14:00.747Z,21.85
2018-08-09T06:16:29.785Z,21.86
2018-08-09T06:18:58.917Z,21.71
2018-08-09T06:21:27.769Z,21.83
2018-08-09T06:23:56.677Z,21.76
2018-08-09T06:26:26.808Z,21.83
2018-08-09T06:28:55.630Z,21.75
2018-08-09T06:31:24.662Z,21.90
2018-08-09T06:33:53.587Z,21.96
2018-08-09T06:36:22.501Z,21.98
2018-08-09T06:38:52.416Z,21.90
2018-08-09T06:41:21.298Z,21.91
2018-08-09T06:43:50.201Z,21.88
2018-08-09T06:46:19.140Z,21.92
2018-08-09T06:48:48.040Z,21.99
2018-08-09T06:51:16.934Z,22.14
2018-08-09T06:53:45.848Z,22.13
2018-08-09T06:56:14.780Z,22.05
2018-08-09T06:58:43.664Z,22.08
2018-08-09T07:01:12.526Z,22.05
2018-08-09T07:03:41.426Z,22.10
2018-08-09T07:06:10.319Z,22.12
2018-08-09T07:08:39.316Z,22.06
2018-08-09T07:11:08.210Z,22.19
2018-08-09T07:13:37.096Z,22.14
2018-08-09T07:16:06.093Z,22.26
2018-08-09T07:18:34.990Z,22.26
2018-08-09T07:21:04.003Z,22.17
2018-08-09T07:23:32.886Z,22.21
2018-08-09T07:26:01.807Z,22.24
2018-08-09T07:28:30.684Z,22.35
2018-08-09T07:30:59.624Z,22.37
2018-08-09T07:33:28.635Z,22.37
2018-08-09T07:35:57.518Z,22.51
2018-08-09T07:38:27.990Z,22.64
2018-08-09T07:40:56.868Z,22.71
2018-08-09T07:43:25.754Z,22.73
2018-08-09T07:45:54.640Z,22.70
2018-08-09T07:48:23.572Z,22.82
2018-08-09T07:50:52.408Z,22.93
2018-08-09T07:53:21.290Z,22.94
2018-08-09T07:55:50.219Z,22.83
2018-08-09T07:58:19.119Z,22.88
2018-08-09T08:00:48.089Z,22.74
2018-08-09T08:03:17.099Z,22.82
2018-08-09T08:05:45.961Z,23.02
2018-08-09T08:08:14.910Z,22.80
2018-08-09T08:10:43.813Z,22.85
2018-08-09T08:13:12.788Z,22.92
2018-08-09T08:15:41.671Z,22.87
2018-08-09T08:18:10.547Z,22.88
2018-08-09T08:20:39.464Z,22.89
2018-08-09T08:23:08.407Z,23.04
2018-08-09T08:25:37.315Z,23.26
2018-08-09T08:28:06.178Z,23.29
2018-08-09T08:30:35.192Z,23.41
2018-08-09T08:33:04.425Z,23.40
2018-08-09T08:35:33.294Z,23.44
2018-08-09T08:38:02.297Z,23.47
2018-08-09T08:40:31.181Z,23.62
2018-08-09T08:43:00.130Z,23.66
2018-08-09T08:45:29.046Z,23.72
2018-08-09T08:47:58.006Z,23.72
2018-08-09T08:50:26.917Z,23.71
2018-08-09T08:52:55.805Z,23.69
2018-08-09T08:55:24.699Z,23.77
2018-08-09T08:57:53.590Z,23.75
2018-08-09T09:00:22.500Z,23.79
2018-08-09T09:02:51.392Z,23.75
2018-08-09T09:05:20.286Z,23.72
2018-08-09T09:07:49.181Z,23.75
2018-08-09T09:10:18.099Z,23.77
2018-08-09T09:12:46.972Z,23.65
2018-08-09T09:15:16.238Z,23.68
2018-08-09T09:17:45.249Z,23.70
2018-08-09T09:20:17.342Z,23.70
2018-08-09T09:22:46.716Z,23.82
2018-08-09T09:25:16.093Z,23.79
2018-08-09T09:27:45.188Z,23.52
2018-08-09T09:30:16.560Z,23.62
2018-08-09T09:32:45.748Z,23.90
2018-08-09T09:35:14.692Z,23.96
2018-08-09T09:37:43.899Z,24.04
2018-08-09T09:40:12.976Z,24.06
2018-08-09T09:42:41.928Z,24.08
2018-08-09T09:45:10.927Z,23.97
2018-08-09T09:47:39.800Z,23.93
2018-08-09T09:50:09.834Z,23.86
2018-08-09T09:52:38.726Z,23.86
2018-08-09T09:55:08.681Z,23.92
2018-08-09T09:57:37.986Z,23.96
2018-08-09T10:00:12.210Z,23.94
2018-08-09T10:02:41.082Z,23.91
2018-08-09T10:05:10.110Z,23.92
2018-08-09T10:07:38.985Z,23.66
2018-08-09T10:10:07.986Z,23.46
2018-08-09T10:12:36.906Z,23.47
2018-08-09T10:15:06.804Z,23.58
2018-08-09T10:17:36.064Z,23.60
2018-08-09T10:20:05.569Z,23.68
2018-08-09T10:22:34.517Z,23.86
2018-08-09T10:25:03.515Z,24.02
2018-08-09T10:27:32.384Z,24.15
2018-08-09T10:30:01.353Z,24.33
2018-08-09T10:32:30.179Z,24.58
2018-08-09T10:34:59.119Z,24.72
2018-08-09T10:37:28.056Z,24.91
2018-08-09T10:39:57.035Z,25.01
2018-08-09T10:42:26.019Z,25.07
2018-08-09T10:44:55.022Z,25.12
2018-08-09T10:47:24.168Z,25.40
2018-08-09T10:49:53.513Z,25.57
2018-08-09T10:52:22.476Z,25.75
2018-08-09T10:54:51.394Z,25.90
2018-08-09T10:57:21.426Z,26.07
2018-08-09T10:59:50.357Z,26.14
2018-08-09T11:02:19.294Z,26.29
2018-08-09T11:04:48.216Z,26.29
2018-08-09T11:07:17.224Z,26.27
2018-08-09T11:09:46.122Z,26.30
2018-08-09T11:12:15.006Z,26.26
2018-08-09T11:14:43.926Z,26.32
2018-08-09T11:17:13.232Z,26.53
2018-08-09T11:19:42.526Z,26.62
2018-08-09T11:22:11.457Z,26.67
2018-08-09T11:24:40.338Z,26.66
2018-08-09T11:27:09.372Z,26.65
2018-08-09T11:29:38.367Z,26.53
2018-08-09T11:32:07.309Z,26.61
2018-08-09T11:34:36.215Z,26.84
2018-08-09T11:37:05.375Z,26.93
2018-08-09T11:39:34.297Z,27.03
2018-08-09T11:42:03.207Z,27.21
2018-08-09T11:44:32.173Z,27.24
2018-08-09T11:47:01.204Z,27.21
2018-08-09T11:49:30.115Z,27.14
2018-08-09T11:51:59.038Z,27.17
2018-08-09T11:54:28.080Z,27.01
2018-08-09T11:56:57.268Z,26.98
2018-08-09T11:59:26.256Z,27.03
2018-08-09T12:01:55.174Z,27.19
2018-08-09T12:04:24.234Z,27.15
2018-08-09T12:06:53.165Z,27.14
2018-08-09T12:09:22.261Z,27.30
2018-08-09T12:11:51.164Z,27.07
2018-08-09T12:14:20.112Z,27.17
2018-08-09T12:16:49.298Z,27.35
2018-08-09T12:19:18.404Z,27.33
2018-08-09T12:21:47.318Z,27.35
2018-08-09T12:24:16.346Z,27.37
2018-08-09T12:26:45.269Z,27.54
2018-08-09T12:29:14.444Z,27.41
2018-08-09T12:31:43.333Z,27.48
2018-08-09T12:34:12.244Z,27.55
2018-08-09T12:36:42.214Z,27.49
2018-08-09T12:39:12.600Z,27.50
2018-08-09T12:41:41.830Z,27.32
2018-08-09T12:44:11.144Z,27.31
2018-08-09T12:46:40.126Z,27.39
2018-08-09T12:49:09.594Z,27.22
2018-08-09T12:51:38.489Z,27.12
2018-08-09T12:54:07.424Z,27.31
2018-08-09T12:56:36.435Z,27.41
2018-08-09T12:59:05.398Z,27.57
2018-08-09T13:01:34.825Z,27.61
2018-08-09T13:04:03.957Z,27.66
2018-08-09T13:06:32.956Z,27.61
2018-08-09T13:09:02.416Z,27.53
2018-08-09T13:11:31.866Z,27.32
2018-08-09T13:14:01.333Z,26.64
2018-08-09T13:16:30.831Z,25.96
2018-08-09T13:19:00.380Z,25.74
2018-08-09T13:21:29.681Z,25.65
2018-08-09T13:23:59.053Z,25.49
2018-08-09T13:26:28.008Z,25.58
2018-08-09T13:28:56.939Z,25.51
2018-08-09T13:31:25.941Z,25.56
2018-08-09T13:33:54.941Z,25.55
2018-08-09T13:36:24.154Z,25.54
2018-08-09T13:38:53.167Z,25.54
2018-08-09T13:41:22.147Z,25.57
2018-08-09T13:43:51.349Z,25.63
2018-08-09T13:46:20.437Z,25.68
2018-08-09T13:48:49.371Z,25.87
2018-08-09T13:51:18.285Z,26.10
2018-08-09T13:53:47.329Z,26.10
2018-08-09T13:56:16.275Z,26.12
2018-08-09T13:58:45.169Z,26.18
2018-08-09T14:01:14.087Z,26.58
2018-08-09T14:03:43.123Z,26.75
2018-08-09T14:06:12.722Z,26.89
2018-08-09T14:08:43.155Z,27.13
2018-08-09T14:11:12.063Z,27.19
2018-08-09T14:13:41.182Z,27.14
2018-08-09T14:16:10.504Z,27.09
2018-08-09T14:18:39.768Z,27.16
2018-08-09T14:21:08.746Z,27.13
2018-08-09T14:23:37.652Z,27.13
2018-08-09T14:26:06.570Z,27.12
2018-08-09T14:28:35.512Z,27.14
2018-08-09T14:31:04.491Z,27.08
2018-08-09T14:33:33.585Z,27.05
2018-08-09T14:36:02.723Z,26.95
2018-08-09T14:38:32.036Z,26.85
2018-08-09T14:41:01.304Z,26.71
2018-08-09T14:43:30.677Z,26.63
2018-08-09T14:46:02.843Z,26.58
2018-08-09T14:48:33.064Z,26.55
2018-08-09T14:51:02.876Z,26.40
2018-08-09T14:53:31.762Z,26.30
2018-08-09T14:56:00.707Z,26.28
2018-08-09T14:58:30.891Z,26.26
2018-08-09T15:00:59.854Z,26.28
2018-08-09T15:03:28.760Z,26.15
2018-08-09T15:05:57.762Z,26.11
2018-08-09T15:08:26.779Z,26.05
2018-08-09T15:10:55.760Z,26.02
2018-08-09T15:13:24.761Z,25.97
2018-08-09T15:15:53.679Z,25.95
2018-08-09T15:18:22.836Z,25.90
2018-08-09T15:20:51.837Z,25.87
2018-08-09T15:23:20.754Z,25.79
2018-08-09T15:25:49.606Z,25.75
2018-08-09T15:28:19.140Z,25.69
2018-08-09T15:30:48.193Z,25.62
2018-08-09T15:33:17.052Z,25.56
2018-08-09T15:35:45.996Z,25.62
2018-08-09T15:38:16.108Z,25.59
2018-08-09T15:40:45.024Z,25.56
2018-08-09T15:43:13.996Z,25.57
2018-08-09T15:45:44.177Z,25.55
2018-08-09T15:48:15.167Z,25.57
2018-08-09T15:50:44.173Z,25.61
2018-08-09T15:53:13.490Z,25.62
2018-08-09T15:55:42.430Z,25.67
2018-08-09T15:58:11.583Z,25.72
2018-08-09T16:00:40.803Z,25.76
2018-08-09T16:03:09.696Z,25.81
2018-08-09T16:05:38.665Z,25.83
2018-08-09T16:08:07.658Z,25.91
2018-08-09T16:10:36.553Z,25.88
2018-08-09T16:13:05.464Z,25.99
2018-08-09T16:15:34.391Z,25.95
2018-08-09T16:18:04.064Z,25.98
2018-08-09T16:20:32.964Z,25.99
2018-08-09T16:23:01.920Z,25.94
2018-08-09T16:25:30.827Z,26.00
2018-08-09T16:27:59.778Z,25.98
2018-08-09T16:30:28.708Z,25.98
2018-08-09T16:32:57.705Z,26.01
2018-08-09T16:35:26.891Z,26.03
2018-08-09T16:37:57.172Z,26.03
2018-08-09T16:40:27.354Z,26.03
2018-08-09T16:42:56.232Z,26.06
2018-08-09T16:45:25.600Z,26.06
2018-08-09T16:47:55.008Z,26.13
2018-08-09T16:50:25.107Z,26.14
2018-08-09T16:52:54.130Z,26.22
2018-08-09T16:55:24.263Z,26.24
2018-08-09T16:57:53.224Z,26.29
2018-08-09T17:00:23.377Z,26.30
2018-08-09T17:02:53.365Z,26.27
2018-08-09T17:05:23.596Z,26.34
2018-08-09T17:07:52.585Z,26.37
2018-08-09T17:10:22.580Z,26.30
2018-08-09T17:12:51.715Z,26.12
2018-08-09T17:15:21.749Z,26.04
2018-08-09T17:17:50.888Z,25.92
2018-08-09T17:20:25.016Z,25.87
2018-08-09T17:22:53.990Z,25.82
2018-08-09T17:25:23.493Z,25.78
2018-08-09T17:27:53.112Z,25.75
2018-08-09T17:30:24.162Z,25.70
2018-08-09T17:32:53.318Z,25.69
2018-08-09T17:35:22.336Z,25.64
2018-08-09T17:37:51.638Z,25.62
2018-08-09T17:40:26.793Z,25.60
2018-08-09T17:42:57.692Z,25.55
2018-08-09T17:45:28.138Z,25.31
2018-08-09T17:47:57.170Z,24.49
2018-08-09T17:50:26.187Z,22.84
2018-08-09T17:52:56.386Z,22.88
2018-08-09T17:55:25.319Z,22.54
2018-08-09T17:57:54.710Z,22.39
2018-08-09T18:00:25.581Z,22.20
2018-08-09T18:02:54.619Z,22.17
2018-08-09T18:05:23.662Z,22.14
2018-08-09T18:07:55.640Z,22.18
2018-08-09T18:10:26.982Z,22.22
2018-08-09T18:12:56.006Z,22.32
2018-08-09T18:15:26.386Z,22.11
2018-08-09T18:17:55.781Z,22.15
2018-08-09T18:20:27.797Z,22.39
2018-08-09T18:22:56.958Z,22.23
2018-08-09T18:25:25.985Z,22.22
2018-08-09T18:27:54.870Z,22.05
2018-08-09T18:30:23.740Z,22.09
2018-08-09T18:32:52.682Z,22.07
2018-08-09T18:35:21.568Z,22.08
2018-08-09T18:37:50.567Z,22.02
2018-08-09T18:40:23.458Z,21.96
2018-08-09T18:42:52.480Z,22.02
2018-08-09T18:45:21.844Z,22.21
2018-08-09T18:47:50.806Z,22.03
2018-08-09T18:50:28.748Z,22.06
2018-08-09T18:52:57.754Z,22.08
2018-08-09T18:55:26.745Z,22.09
2018-08-09T18:57:55.976Z,22.08
2018-08-09T19:00:26.873Z,21.93
2018-08-09T19:02:55.981Z,22.14
2018-08-09T19:05:25.350Z,21.98
2018-08-09T19:07:54.423Z,22.10
2018-08-09T19:10:24.881Z,21.84
2018-08-09T19:12:53.802Z,21.81
2018-08-09T19:15:22.768Z,21.72
2018-08-09T19:17:52.423Z,21.97
2018-08-09T19:20:35.979Z,21.84
2018-08-09T19:23:06.045Z,21.71
2018-08-09T19:25:35.964Z,21.72
2018-08-09T19:28:04.893Z,21.79
2018-08-09T19:30:33.811Z,21.83
2018-08-09T19:33:02.684Z,21.99
2018-08-09T19:35:31.571Z,21.84
2018-08-09T19:38:00.470Z,21.64
2018-08-09T19:40:30.254Z,21.69
2018-08-09T19:43:00.271Z,21.68
2018-08-09T19:45:29.187Z,21.64
2018-08-09T19:47:58.504Z,21.51
2018-08-09T19:50:27.575Z,21.42
2018-08-09T19:52:56.790Z,21.41
2018-08-09T19:55:26.535Z,21.43
2018-08-09T19:57:55.584Z,21.31
2018-08-09T20:00:27.200Z,21.43
2018-08-09T20:02:56.076Z,21.39
2018-08-09T20:05:25.166Z,21.35
2018-08-09T20:07:54.103Z,21.33
2018-08-09T20:10:23.006Z,21.43
2018-08-09T20:12:51.966Z,21.35
2018-08-09T20:15:22.754Z,21.21
2018-08-09T20:17:51.757Z,21.15
2018-08-09T20:20:22.257Z,21.16
2018-08-09T20:22:51.168Z,21.24
2018-08-09T20:25:20.198Z,21.15
2018-08-09T20:27:49.257Z,21.07
2018-08-09T20:30:18.823Z,21.08
2018-08-09T20:32:48.131Z,20.95
2018-08-09T20:35:23.907Z,20.93
2018-08-09T20:37:53.207Z,20.87
2018-08-09T20:40:23.184Z,20.78
2018-08-09T20:42:53.201Z,20.72
2018-08-09T20:45:23.196Z,20.89
2018-08-09T20:47:52.292Z,20.86
2018-08-09T20:50:24.860Z,20.48
2018-08-09T20:52:53.729Z,20.45
2018-08-09T20:55:22.827Z,20.42
2018-08-09T20:57:52.500Z,20.38
2018-08-09T21:00:24.345Z,20.25
2018-08-09T21:02:54.743Z,20.23
2018-08-09T21:05:29.260Z,20.25
2018-08-09T21:07:58.887Z,20.24
2018-08-09T21:10:28.305Z,20.03
2018-08-09T21:12:57.294Z,19.91
2018-08-09T21:15:26.499Z,19.90
2018-08-09T21:17:55.464Z,19.87
2018-08-09T21:20:24.381Z,19.69
2018-08-09T21:22:53.328Z,19.51
2018-08-09T21:25:22.231Z,19.66
2018-08-09T21:27:51.352Z,19.53
2018-08-09T21:30:21.507Z,19.38
2018-08-09T21:32:50.919Z,19.84
2018-08-09T21:35:19.865Z,19.40
2018-08-09T21:37:48.805Z,19.47
2018-08-09T21:40:17.751Z,19.34
2018-08-09T21:42:46.729Z,19.58
2018-08-09T21:45:17.125Z,19.62
2018-08-09T21:47:46.263Z,19.46
2018-08-09T21:50:18.017Z,19.27
2018-08-09T21:52:46.925Z,19.30
2018-08-09T21:55:15.885Z,19.04
2018-08-09T21:57:45.600Z,19.12
2018-08-09T22:00:51.688Z,19.04
2018-08-09T22:03:22.572Z,19.26
2018-08-09T22:05:56.988Z,19.05
2018-08-09T22:08:30.961Z,19.12
2018-08-09T22:11:05.137Z,19.10
2018-08-09T22:13:39.323Z,18.74
2018-08-09T22:16:13.935Z,18.74
2018-08-09T22:18:48.289Z,18.81
2018-08-09T22:21:22.722Z,19.03
2018-08-09T22:23:51.623Z,18.83
2018-08-09T22:26:20.570Z,18.70
2018-08-09T22:28:49.542Z,18.76
2018-08-09T22:31:18.478Z,18.51
2018-08-09T22:33:47.435Z,18.35
2018-08-09T22:36:16.543Z,18.42
2018-08-09T22:38:45.949Z,18.05
2018-08-09T22:41:14.875Z,18.15
2018-08-09T22:43:44.349Z,18.34
2018-08-09T22:46:13.857Z,18.14
2018-08-09T22:48:43.053Z,18.06
2018-08-09T22:51:12.557Z,18.12
2018-08-09T22:53:42.003Z,18.14
2018-08-09T22:56:11.447Z,18.26
2018-08-09T22:58:40.938Z,18.18
2018-08-09T23:01:10.352Z,18.29
2018-08-09T23:03:39.888Z,17.95
2018-08-09T23:06:09.330Z,18.16
2018-08-09T23:08:38.628Z,18.03
2018-08-09T23:11:08.450Z,18.24
2018-08-09T23:13:37.733Z,18.22
2018-08-09T23:16:07.344Z,18.04
2018-08-09T23:18:36.742Z,17.98
2018-08-09T23:21:06.020Z,18.18
2018-08-09T23:23:35.393Z,17.99
2018-08-09T23:26:04.484Z,18.29
2018-08-09T23:28:33.550Z,18.18
2018-08-09T23:31:02.437Z,17.99
2018-08-09T23:33:31.547Z,17.97
2018-08-09T23:36:00.461Z,18.34
2018-08-09T23:38:29.345Z,17.93
2018-08-09T23:40:58.237Z,18.15
2018-08-09T23:43:27.267Z,17.94
2018-08-09T23:45:56.118Z,17.91
2018-08-09T23:48:25.016Z,17.84
2018-08-09T23:50:53.928Z,17.74
2018-08-09T23:53:22.780Z,17.98
2018-08-09T23:55:51.662Z,18.04
2018-08-09T23:58:20.803Z,17.98
